createdAt,value
2022-09-05T00:00:23.033Z,21.96
2022-09-05T00:03:36.192Z,21.97
2022-09-05T00:06:12.312Z,21.91
2022-09-05T00:09:27.752Z,21.83
2022-09-05T00:12:00.987Z,21.95
2022-09-05T00:15:16.055Z,21.90
2022-09-05T00:22:09.541Z,21.75
2022-09-05T00:24:30.779Z,21.81
2022-09-05T00:25:39.169Z,21.93
2022-09-05T00:28:49.512Z,21.70
2022-09-05T00:32:04.820Z,21.78
2022-09-05T00:35:09.950Z,21.77
2022-09-05T00:37:50.927Z,21.74
2022-09-05T00:40:47.658Z,21.74
2022-09-05T00:43:32.442Z,21.60
2022-09-05T00:46:10.450Z,21.70
2022-09-05T00:49:25.620Z,21.74
2022-09-05T00:52:38.078Z,21.62
2022-09-05T00:55:57.838Z,21.49
2022-09-05T00:59:11.548Z,21.44
2022-09-05T01:02:21.402Z,21.45
2022-09-05T01:05:23.321Z,21.49
2022-09-05T01:08:47.169Z,21.54
2022-09-05T01:12:12.311Z,21.44
2022-09-05T01:15:32.352Z,21.52
2022-09-05T01:18:53.296Z,21.30
2022-09-05T01:22:35.061Z,21.27
2022-09-05T01:25:54.763Z,21.29
2022-09-05T01:29:16.181Z,21.28
2022-09-05T01:32:56.801Z,21.09
2022-09-05T01:36:23.240Z,21.24
2022-09-05T01:40:14.350Z,21.05
2022-09-05T01:43:14.821Z,21.13
2022-09-05T01:46:31.051Z,21.06
2022-09-05T01:49:25.185Z,21.05
2022-09-05T01:53:06.312Z,20.92
2022-09-05T01:56:15.255Z,20.89
2022-09-05T01:59:01.100Z,20.93
2022-09-05T02:02:50.757Z,20.76
2022-09-05T02:05:58.748Z,20.83
2022-09-05T02:09:29.983Z,20.72
2022-09-05T02:12:20.146Z,20.73
2022-09-05T02:15:37.508Z,20.78
2022-09-05T02:18:21.159Z,20.81
2022-09-05T02:20:59.378Z,20.82
2022-09-05T02:24:04.649Z,20.69
2022-09-05T02:28:03.663Z,20.74
2022-09-05T02:30:23.322Z,20.59
2022-09-05T02:33:25.466Z,20.56
2022-09-05T02:36:54.752Z,20.59
2022-09-05T02:45:09.389Z,20.59
2022-09-05T02:45:19.000Z,20.61
2022-09-05T02:47:13.297Z,20.60
2022-09-05T02:54:27.778Z,20.56
2022-09-05T02:57:34.739Z,20.49
2022-09-05T02:57:37.052Z,20.59
2022-09-05T03:00:30.981Z,20.57
2022-09-05T03:03:43.768Z,20.47
2022-09-05T03:07:07.808Z,20.53
2022-09-05T03:10:06.940Z,20.25
2022-09-05T03:13:56.339Z,20.36
2022-09-05T03:17:09.388Z,20.37
2022-09-05T03:19:54.889Z,20.29
2022-09-05T03:23:15.017Z,20.36
2022-09-05T03:26:27.324Z,20.34
2022-09-05T03:30:06.104Z,20.36
2022-09-05T03:33:25.166Z,20.42
2022-09-05T03:37:08.382Z,20.29
2022-09-05T03:40:31.251Z,20.29
2022-09-05T03:44:10.096Z,20.08
2022-09-05T03:47:42.476Z,20.25
2022-09-05T03:57:06.170Z,20.11
2022-09-05T03:57:23.305Z,20.09
2022-09-05T03:59:29.861Z,20.13
2022-09-05T04:02:40.434Z,20.05
2022-09-05T04:08:08.729Z,20.11
2022-09-05T04:08:57.145Z,20.19
2022-09-05T04:12:18.318Z,20.18
2022-09-05T04:15:28.261Z,20.01
2022-09-05T04:18:30.569Z,19.96
2022-09-05T04:21:27.821Z,19.89
2022-09-05T04:24:37.020Z,20.03
2022-09-05T04:27:42.420Z,19.99
2022-09-05T04:30:44.539Z,19.87
2022-09-05T04:33:55.249Z,19.89
2022-09-05T04:36:38.217Z,19.96
2022-09-05T04:39:20.698Z,19.92
2022-09-05T04:42:24.449Z,19.89
2022-09-05T04:45:07.140Z,19.86
2022-09-05T04:47:52.304Z,19.88
2022-09-05T04:50:24.183Z,19.93
2022-09-05T04:53:29.801Z,19.75
2022-09-05T04:55:59.944Z,19.86
2022-09-05T05:00:04.169Z,19.73
2022-09-05T05:06:03.969Z,19.88
2022-09-05T05:06:11.538Z,19.77
2022-09-05T05:08:37.843Z,19.75
2022-09-05T05:16:18.628Z,19.77
2022-09-05T05:18:02.614Z,19.83
2022-09-05T05:18:08.472Z,19.77
2022-09-05T05:21:16.503Z,19.64
2022-09-05T05:24:13.472Z,19.73
2022-09-05T05:27:37.457Z,19.69
2022-09-05T05:30:11.804Z,19.68
2022-09-05T05:32:49.317Z,19.70
2022-09-05T05:35:33.276Z,19.78
2022-09-05T05:38:42.709Z,19.80
2022-09-05T05:41:50.233Z,19.99
2022-09-05T05:44:36.723Z,19.85
2022-09-05T05:47:31.800Z,19.81
2022-09-05T05:50:52.646Z,19.87
2022-09-05T05:54:16.959Z,20.00
2022-09-05T05:57:26.580Z,20.06
2022-09-05T06:00:51.421Z,20.15
2022-09-05T06:04:02.732Z,20.12
2022-09-05T06:07:12.916Z,20.14
2022-09-05T06:14:50.394Z,19.97
2022-09-05T06:15:10.144Z,20.26
2022-09-05T06:18:28.991Z,20.04
2022-09-05T06:22:19.371Z,20.12
2022-09-05T06:26:01.021Z,20.24
2022-09-05T06:29:08.566Z,20.22
2022-09-05T06:32:22.074Z,20.22
2022-09-05T06:35:29.083Z,20.10
2022-09-05T06:38:42.986Z,20.07
2022-09-05T06:41:51.336Z,20.00
2022-09-05T06:44:40.396Z,20.10
2022-09-05T06:47:33.801Z,20.08
2022-09-05T06:50:26.780Z,20.08
2022-09-05T06:53:34.899Z,20.18
2022-09-05T06:56:40.282Z,20.32
2022-09-05T06:59:52.448Z,20.27
2022-09-05T07:03:20.516Z,20.49
2022-09-05T07:06:41.439Z,20.48
2022-09-05T07:10:21.998Z,20.58
2022-09-05T07:13:17.189Z,20.57
2022-09-05T07:16:41.822Z,20.73
2022-09-05T07:19:49.632Z,20.66
2022-09-05T07:23:46.052Z,20.74
2022-09-05T07:25:51.798Z,20.83
2022-09-05T07:28:28.511Z,20.86
2022-09-05T07:31:14.543Z,20.89
2022-09-05T07:34:32.521Z,20.81
2022-09-05T07:37:26.516Z,20.89
2022-09-05T07:40:11.225Z,20.91
2022-09-05T07:43:09.958Z,21.10
2022-09-05T07:45:56.172Z,21.08
2022-09-05T07:48:34.796Z,21.33
2022-09-05T07:56:48.948Z,21.47
2022-09-05T07:57:01.034Z,21.54
2022-09-05T07:57:30.036Z,21.65
2022-09-05T08:00:26.387Z,21.64
2022-09-05T08:03:10.453Z,21.58
2022-09-05T08:05:49.595Z,21.69
2022-09-05T08:08:25.650Z,21.64
2022-09-05T08:11:22.629Z,21.67
2022-09-05T08:14:43.694Z,21.60
2022-09-05T08:17:19.712Z,21.63
2022-09-05T08:20:36.849Z,21.59
2022-09-05T08:23:50.311Z,21.54
2022-09-05T08:27:16.077Z,21.28
2022-09-05T08:30:24.327Z,21.46
2022-09-05T08:33:11.326Z,21.33
2022-09-05T08:36:19.288Z,21.32
2022-09-05T08:38:46.938Z,21.18
2022-09-05T08:41:50.445Z,21.19
2022-09-05T08:46:43.588Z,21.18
2022-09-05T08:48:03.285Z,21.08
2022-09-05T08:51:28.744Z,21.23
2022-09-05T08:54:46.584Z,21.18
2022-09-05T08:57:46.586Z,21.11
2022-09-05T09:00:24.354Z,21.14
2022-09-05T09:03:29.915Z,21.47
2022-09-05T09:06:59.437Z,21.60
2022-09-05T09:10:26.269Z,21.72
2022-09-05T09:13:38.829Z,21.67
2022-09-05T09:16:41.015Z,21.71
2022-09-05T09:19:46.161Z,21.73
2022-09-05T09:23:00.909Z,21.70
2022-09-05T09:26:11.849Z,21.78
2022-09-05T09:29:12.413Z,21.86
2022-09-05T09:32:05.980Z,21.98
2022-09-05T09:35:31.628Z,22.02
2022-09-05T09:38:28.761Z,21.96
2022-09-05T09:42:10.149Z,21.92
2022-09-05T09:45:28.595Z,22.23
2022-09-05T09:48:55.514Z,22.13
2022-09-05T09:52:07.903Z,22.37
2022-09-05T09:55:52.121Z,22.32
2022-09-05T09:58:49.231Z,22.43
2022-09-05T10:03:51.298Z,22.38
2022-09-05T10:10:48.188Z,22.50
2022-09-05T10:10:52.849Z,22.47
2022-09-05T10:13:12.126Z,22.46
2022-09-05T10:17:05.557Z,22.54
2022-09-05T10:23:50.421Z,22.75
2022-09-05T10:27:25.148Z,22.94
2022-09-05T10:30:26.659Z,23.02
2022-09-05T10:35:13.148Z,23.27
2022-09-05T10:36:39.736Z,23.28
2022-09-05T10:39:26.300Z,23.30
2022-09-05T10:42:31.397Z,23.43
2022-09-05T10:45:13.684Z,23.53
2022-09-05T10:48:25.177Z,23.66
2022-09-05T10:51:39.820Z,23.67
2022-09-05T10:55:14.860Z,23.72
2022-09-05T11:01:19.396Z,23.88
2022-09-05T11:02:34.731Z,24.11
2022-09-05T11:05:28.629Z,24.46
2022-09-05T11:08:35.874Z,24.74
2022-09-05T11:11:32.579Z,24.97
2022-09-05T11:14:26.989Z,25.23
2022-09-05T11:17:54.136Z,25.55
2022-09-05T11:21:24.449Z,25.65
2022-09-05T11:24:35.883Z,25.96
2022-09-05T11:27:43.583Z,26.18
2022-09-05T11:30:33.514Z,26.30
2022-09-05T11:36:56.784Z,26.65
2022-09-05T11:39:57.411Z,26.72
2022-09-05T11:41:16.654Z,27.01
2022-09-05T11:44:35.644Z,27.26
2022-09-05T11:47:54.395Z,27.51
2022-09-05T11:51:33.375Z,27.70
2022-09-05T11:54:41.874Z,27.89
2022-09-05T11:57:44.600Z,27.94
2022-09-05T12:01:42.682Z,28.19
2022-09-05T12:05:49.774Z,28.36
2022-09-05T12:08:31.487Z,28.59
2022-09-05T12:11:59.867Z,28.81
2022-09-05T12:15:11.942Z,29.01
2022-09-05T12:18:02.810Z,29.06
2022-09-05T12:21:38.224Z,29.47
2022-09-05T12:25:26.362Z,29.62
2022-09-05T12:29:09.584Z,29.84
2022-09-05T12:30:57.203Z,30.04
2022-09-05T12:36:13.057Z,30.13
2022-09-05T12:40:16.523Z,30.21
2022-09-05T12:41:35.992Z,30.42
2022-09-05T12:43:57.365Z,30.47
2022-09-05T12:46:23.806Z,30.73
2022-09-05T12:49:11.653Z,30.94
2022-09-05T12:51:56.061Z,31.14
2022-09-05T12:54:35.760Z,31.03
2022-09-05T13:02:56.472Z,30.68
2022-09-05T13:03:08.111Z,31.10
2022-09-05T13:03:32.616Z,31.17
2022-09-05T13:06:25.730Z,31.45
2022-09-05T13:09:16.658Z,31.52
2022-09-05T13:14:56.696Z,31.75
2022-09-05T13:15:23.604Z,31.76
2022-09-05T13:18:21.112Z,31.89
2022-09-05T13:21:06.127Z,32.11
2022-09-05T13:24:06.168Z,32.08
2022-09-05T13:26:54.975Z,32.22
2022-09-05T13:30:00.529Z,32.41
2022-09-05T13:37:59.805Z,32.42
2022-09-05T13:38:15.038Z,32.52
2022-09-05T13:39:04.866Z,32.70
2022-09-05T13:42:01.517Z,32.55
2022-09-05T13:44:35.253Z,32.99
2022-09-05T13:47:45.588Z,33.06
2022-09-05T13:50:36.093Z,32.89
2022-09-05T13:53:51.974Z,33.26
2022-09-05T13:56:31.584Z,33.39
2022-09-05T13:59:14.203Z,30.89
2022-09-05T14:11:11.812Z,30.23
2022-09-05T14:20:31.142Z,30.35
2022-09-05T14:23:10.588Z,29.87
2022-09-05T14:25:55.126Z,29.55
2022-09-05T14:28:46.462Z,30.20
2022-09-05T14:37:08.392Z,29.87
2022-09-05T14:37:53.015Z,29.58
2022-09-05T14:38:20.711Z,29.74
2022-09-05T14:41:53.253Z,30.24
2022-09-05T14:45:22.907Z,29.59
2022-09-05T14:48:53.691Z,29.80
2022-09-05T14:51:36.105Z,29.87
2022-09-05T15:02:33.969Z,30.26
2022-09-05T15:02:41.599Z,30.27
2022-09-05T15:06:40.656Z,30.07
2022-09-05T15:11:24.362Z,30.03
2022-09-05T15:12:31.233Z,30.52
2022-09-05T15:15:48.338Z,30.04
2022-09-05T15:18:49.397Z,30.09
2022-09-05T15:21:43.153Z,30.25
2022-09-05T15:24:30.255Z,30.34
2022-09-05T15:27:04.472Z,30.19
2022-09-05T15:29:36.111Z,30.24
2022-09-05T15:32:28.962Z,30.09
2022-09-05T15:35:00.254Z,30.19
2022-09-05T15:37:40.749Z,30.40
2022-09-05T15:40:23.049Z,30.25
2022-09-05T15:43:02.552Z,30.31
2022-09-05T15:45:49.865Z,30.15
2022-09-05T15:48:26.540Z,30.46
2022-09-05T15:51:18.970Z,30.14
2022-09-05T15:53:52.025Z,29.69
2022-09-05T15:56:25.227Z,29.73
2022-09-05T15:59:01.386Z,29.97
2022-09-05T16:01:58.239Z,30.87
2022-09-05T16:07:12.183Z,31.30
2022-09-05T16:10:43.755Z,31.32
2022-09-05T16:10:58.298Z,31.30
2022-09-05T16:13:19.707Z,31.44
2022-09-05T16:21:23.360Z,31.41
2022-09-05T16:23:23.941Z,31.31
2022-09-05T16:23:34.273Z,31.18
2022-09-05T16:25:29.525Z,31.28
2022-09-05T16:28:27.502Z,31.13
2022-09-05T16:31:37.252Z,31.09
2022-09-05T16:34:16.104Z,31.09
2022-09-05T16:37:08.820Z,30.97
2022-09-05T16:40:00.021Z,30.97
2022-09-05T16:43:12.375Z,30.79
2022-09-05T16:46:08.841Z,30.65
2022-09-05T16:49:41.551Z,30.67
2022-09-05T16:52:17.825Z,30.55
2022-09-05T16:55:08.274Z,30.43
2022-09-05T16:57:37.784Z,30.44
2022-09-05T17:00:10.392Z,30.41
2022-09-05T17:02:56.385Z,30.42
2022-09-05T17:05:46.809Z,30.22
2022-09-05T17:08:29.451Z,30.19
2022-09-05T17:11:18.405Z,30.09
2022-09-05T17:14:09.548Z,29.12
2022-09-05T17:16:54.742Z,28.87
2022-09-05T17:19:41.981Z,28.87
2022-09-05T17:25:45.947Z,28.80
2022-09-05T17:29:35.088Z,28.30
2022-09-05T17:29:39.124Z,28.51
2022-09-05T17:32:00.577Z,28.46
2022-09-05T17:35:21.891Z,28.47
2022-09-05T17:38:36.800Z,28.34
2022-09-05T17:41:46.541Z,28.26
2022-09-05T17:45:22.835Z,28.20
2022-09-05T17:47:55.684Z,28.01
2022-09-05T17:50:27.985Z,28.07
2022-09-05T17:53:26.967Z,27.88
2022-09-05T17:55:52.157Z,27.84
2022-09-05T17:58:49.472Z,27.78
2022-09-05T18:01:28.832Z,27.97
2022-09-05T18:04:17.082Z,27.74
2022-09-05T18:07:00.711Z,27.71
2022-09-05T18:09:37.294Z,27.83
2022-09-05T18:13:31.241Z,27.69
2022-09-05T18:15:32.661Z,27.63
2022-09-05T18:18:08.557Z,27.57
2022-09-05T18:24:15.489Z,27.50
2022-09-05T18:29:58.647Z,27.50
2022-09-05T18:33:33.271Z,27.43
2022-09-05T18:36:25.762Z,27.46
2022-09-05T18:39:38.100Z,27.33
2022-09-05T18:42:33.401Z,27.45
2022-09-05T18:45:16.773Z,27.31
2022-09-05T18:47:59.704Z,27.20
2022-09-05T18:50:40.417Z,27.23
2022-09-05T18:53:13.237Z,27.22
2022-09-05T18:56:20.105Z,27.15
2022-09-05T18:59:14.523Z,27.22
2022-09-05T19:02:50.346Z,27.22
2022-09-05T19:05:45.622Z,27.21
2022-09-05T19:08:31.821Z,27.19
2022-09-05T19:11:18.711Z,27.21
2022-09-05T19:14:12.688Z,27.10
2022-09-05T19:16:48.090Z,27.15
2022-09-05T19:19:24.997Z,27.16
2022-09-05T19:22:43.815Z,27.07
2022-09-05T19:24:49.529Z,27.10
2022-09-05T19:29:45.862Z,26.94
2022-09-05T19:36:52.399Z,27.07
2022-09-05T19:36:54.501Z,27.08
2022-09-05T19:37:14.268Z,27.06
2022-09-05T19:43:05.889Z,27.03
2022-09-05T19:47:10.946Z,26.94
2022-09-05T19:47:40.427Z,26.94
2022-09-05T19:48:04.014Z,26.99
2022-09-05T19:50:35.211Z,26.91
2022-09-05T19:53:07.549Z,26.94
2022-09-05T19:55:38.778Z,26.78
2022-09-05T19:58:20.947Z,26.87
2022-09-05T20:01:08.086Z,26.87
2022-09-05T20:03:44.024Z,26.77
2022-09-05T20:06:30.979Z,26.79
2022-09-05T20:09:23.875Z,26.76
2022-09-05T20:11:58.652Z,26.70
2022-09-05T20:14:35.670Z,26.70
2022-09-05T20:17:32.104Z,26.61
2022-09-05T20:20:37.405Z,26.63
2022-09-05T20:23:10.009Z,26.62
2022-09-05T20:25:48.055Z,26.58
2022-09-05T20:28:23.788Z,26.55
2022-09-05T20:31:19.707Z,26.58
2022-09-05T20:34:03.329Z,26.43
2022-09-05T20:43:08.810Z,26.35
2022-09-05T20:43:14.580Z,26.32
2022-09-05T20:43:24.416Z,26.38
2022-09-05T20:46:13.665Z,26.32
2022-09-05T20:54:08.767Z,26.33
2022-09-05T20:54:16.432Z,26.27
2022-09-05T20:54:41.300Z,26.06
2022-09-05T20:57:20.004Z,26.05
2022-09-05T20:59:47.927Z,26.13
2022-09-05T21:02:32.752Z,26.07
2022-09-05T21:05:20.564Z,25.93
2022-09-05T21:08:06.914Z,25.96
2022-09-05T21:10:56.912Z,25.90
2022-09-05T21:13:37.204Z,25.92
2022-09-05T21:16:26.993Z,25.84
2022-09-05T21:18:54.491Z,25.87
2022-09-05T21:21:32.415Z,25.84
2022-09-05T21:24:18.211Z,25.78
2022-09-05T21:26:50.296Z,25.78
2022-09-05T21:29:32.891Z,25.77
2022-09-05T21:32:10.367Z,25.69
2022-09-05T21:34:49.479Z,25.53
2022-09-05T21:37:19.482Z,25.59
2022-09-05T21:39:59.898Z,25.52
2022-09-05T21:46:58.573Z,25.43
2022-09-05T21:47:49.746Z,25.47
2022-09-05T21:48:15.526Z,25.33
2022-09-05T21:51:02.666Z,25.31
2022-09-05T21:59:14.070Z,25.24
2022-09-05T21:59:28.802Z,25.18
2022-09-05T21:59:45.310Z,25.14
2022-09-05T22:02:16.698Z,25.12
2022-09-05T22:04:44.371Z,25.24
2022-09-05T22:07:16.292Z,25.24
2022-09-05T22:09:46.932Z,25.17
2022-09-05T22:12:29.875Z,25.17
2022-09-05T22:15:02.539Z,25.04
2022-09-05T22:17:47.210Z,24.99
2022-09-05T22:20:20.748Z,24.97
2022-09-05T22:22:56.256Z,24.90
2022-09-05T22:25:34.961Z,24.89
2022-09-05T22:28:16.161Z,24.84
2022-09-05T22:30:43.750Z,24.81
2022-09-05T22:33:12.919Z,24.89
2022-09-05T22:35:41.280Z,24.77
2022-09-05T22:38:19.281Z,24.76
2022-09-05T22:40:47.917Z,24.74
2022-09-05T22:43:16.954Z,24.60
2022-09-05T22:45:44.439Z,24.66
2022-09-05T22:48:15.424Z,24.64
2022-09-05T22:50:44.242Z,24.66
2022-09-05T22:53:11.737Z,24.65
2022-09-05T22:55:43.295Z,24.64
2022-09-05T22:58:14.818Z,24.59
2022-09-05T23:00:44.188Z,24.49
2022-09-05T23:03:11.887Z,24.55
2022-09-05T23:05:39.309Z,24.50
2022-09-05T23:08:07.619Z,24.41
2022-09-05T23:10:37.512Z,24.49
2022-09-05T23:13:09.802Z,24.42
2022-09-05T23:15:38.011Z,24.42
2022-09-05T23:18:05.825Z,24.31
2022-09-05T23:20:34.387Z,24.35
2022-09-05T23:23:06.906Z,24.26
2022-09-05T23:25:36.582Z,24.23
2022-09-05T23:28:10.569Z,24.19
2022-09-05T23:30:39.601Z,24.19
2022-09-05T23:33:09.504Z,24.09
2022-09-05T23:35:37.624Z,24.09
2022-09-05T23:38:11.205Z,24.10
2022-09-05T23:40:39.373Z,23.99
2022-09-05T23:43:07.442Z,23.93
2022-09-05T23:45:34.998Z,23.84
2022-09-05T23:48:02.945Z,23.94
2022-09-05T23:50:30.265Z,23.92
2022-09-05T23:53:03.572Z,23.81
2022-09-05T23:55:32.294Z,23.90
2022-09-05T23:57:59.813Z,23.72
